createdAt,value
2023-04-21T00:01:59.218Z,6.10
2023-04-21T00:04:28.785Z,6.20
2023-04-21T00:06:57.192Z,6.30
2023-04-21T00:09:25.166Z,6.03
2023-04-21T00:11:53.413Z,6.37
2023-04-21T00:14:24.291Z,6.13
2023-04-21T00:16:55.816Z,6.00
2023-04-21T00:19:27.224Z,6.43
2023-04-21T00:21:59.086Z,6.30
2023-04-21T00:24:27.294Z,6.57
2023-04-21T00:26:57.394Z,5.97
2023-04-21T00:29:27.888Z,6.17
2023-04-21T00:31:56.895Z,6.73
2023-04-21T00:34:30.491Z,6.77
2023-04-21T00:36:58.304Z,6.67
2023-04-21T00:39:26.970Z,6.60
2023-04-21T00:41:54.786Z,6.57
2023-04-21T00:44:26.653Z,6.13
2023-04-21T00:46:58.715Z,6.47
2023-04-21T00:49:32.941Z,6.53
2023-04-21T00:52:17.252Z,6.90
2023-04-21T00:54:45.797Z,6.53
2023-04-21T00:57:16.783Z,6.47
2023-04-21T00:59:57.027Z,6.47
2023-04-21T01:02:28.522Z,6.30
2023-04-21T01:04:58.998Z,6.37
2023-04-21T01:07:26.975Z,7.23
2023-04-21T01:10:07.265Z,6.53
2023-04-21T01:12:49.349Z,6.77
2023-04-21T01:15:18.527Z,7.00
2023-04-21T01:17:46.379Z,6.80
2023-04-21T01:20:18.452Z,6.70
2023-04-21T01:22:55.489Z,7.17
2023-04-21T01:25:30.473Z,7.17
2023-04-21T01:27:58.668Z,7.47
2023-04-21T01:30:27.359Z,6.70
2023-04-21T01:32:56.100Z,6.77
2023-04-21T01:35:23.913Z,7.10
2023-04-21T01:38:04.773Z,7.40
2023-04-21T01:40:38.941Z,6.90
2023-04-21T01:43:07.521Z,7.03
2023-04-21T01:45:37.009Z,7.47
2023-04-21T01:48:07.127Z,6.90
2023-04-21T01:50:37.149Z,7.47
2023-04-21T01:53:08.635Z,7.50
2023-04-21T01:55:37.608Z,7.00
2023-04-21T01:58:07.387Z,7.57
2023-04-21T02:00:38.437Z,7.33
2023-04-21T02:03:08.026Z,7.10
2023-04-21T02:05:37.145Z,7.57
2023-04-21T02:08:06.544Z,7.27
2023-04-21T02:10:37.452Z,7.33
2023-04-21T02:13:06.710Z,7.00
2023-04-21T02:15:34.710Z,7.00
2023-04-21T02:18:08.368Z,7.43
2023-04-21T02:20:38.694Z,7.53
2023-04-21T02:23:07.886Z,7.60
2023-04-21T02:25:37.258Z,7.27
2023-04-21T02:28:07.419Z,7.47
2023-04-21T02:30:37.253Z,8.17
2023-04-21T02:33:08.053Z,7.80
2023-04-21T02:35:37.422Z,7.70
2023-04-21T02:38:07.387Z,7.63
2023-04-21T02:40:38.923Z,7.70
2023-04-21T02:43:07.883Z,7.13
2023-04-21T02:45:38.136Z,8.13
2023-04-21T02:48:07.689Z,7.60
2023-04-21T02:50:38.122Z,7.03
2023-04-21T02:53:17.200Z,7.43
2023-04-21T02:55:51.153Z,7.53
2023-04-21T02:58:18.965Z,7.50
2023-04-21T03:00:47.469Z,7.50
2023-04-21T03:03:16.970Z,7.03
2023-04-21T03:05:47.268Z,7.13
2023-04-21T03:08:17.352Z,6.93
2023-04-21T03:10:48.897Z,7.57
2023-04-21T03:13:17.482Z,7.60
2023-04-21T03:15:49.271Z,7.37
2023-04-21T03:18:17.761Z,7.40
2023-04-21T03:20:46.974Z,6.23
2023-04-21T03:23:17.838Z,7.10
2023-04-21T03:25:45.592Z,7.30
2023-04-21T03:28:15.808Z,6.83
2023-04-21T03:30:43.673Z,6.57
2023-04-21T03:33:11.487Z,6.83
2023-04-21T03:35:39.401Z,7.00
2023-04-21T03:38:07.553Z,7.47
2023-04-21T03:40:37.446Z,7.70
2023-04-21T03:43:05.221Z,6.83
2023-04-21T03:45:39.116Z,7.53
2023-04-21T03:48:07.921Z,7.17
2023-04-21T03:50:37.412Z,7.23
2023-04-21T03:53:07.676Z,7.00
2023-04-21T03:55:43.807Z,7.40
2023-04-21T03:58:11.948Z,7.60
2023-04-21T04:00:41.067Z,7.63
2023-04-21T04:03:08.931Z,7.37
2023-04-21T04:05:41.498Z,7.27
2023-04-21T04:08:09.518Z,7.33
2023-04-21T04:10:37.696Z,7.90
2023-04-21T04:13:07.200Z,8.20
2023-04-21T04:15:37.609Z,8.00
2023-04-21T04:18:09.399Z,8.20
2023-04-21T04:20:37.769Z,8.20
2023-04-21T04:23:08.842Z,7.93
2023-04-21T04:25:39.980Z,8.27
2023-04-21T04:28:09.456Z,9.57
2023-04-21T04:30:37.840Z,8.67
2023-04-21T04:33:10.401Z,9.90
2023-04-21T04:35:38.923Z,9.17
2023-04-21T04:38:08.079Z,9.80
2023-04-21T04:40:38.474Z,9.67
2023-04-21T04:43:08.942Z,9.43
2023-04-21T04:45:39.096Z,9.33
2023-04-21T04:48:09.342Z,9.80
2023-04-21T04:50:37.873Z,9.37
2023-04-21T04:53:06.442Z,10.47
2023-04-21T04:55:37.393Z,9.73
2023-04-21T04:58:07.678Z,10.67
2023-04-21T05:00:37.066Z,10.73
2023-04-21T05:03:05.149Z,10.10
2023-04-21T05:05:39.116Z,10.67
2023-04-21T05:08:07.287Z,10.57
2023-04-21T05:10:39.035Z,10.80
2023-04-21T05:13:07.852Z,10.10
2023-04-21T05:15:37.632Z,11.00
2023-04-21T05:18:05.609Z,10.77
2023-04-21T05:20:44.341Z,11.33
2023-04-21T05:23:13.123Z,11.00
2023-04-21T05:25:41.088Z,10.83
2023-04-21T05:28:08.815Z,12.17
2023-04-21T05:30:37.865Z,11.43
2023-04-21T05:33:05.742Z,11.50
2023-04-21T05:35:39.350Z,11.57
2023-04-21T05:38:07.830Z,11.47
2023-04-21T05:40:39.478Z,12.00
2023-04-21T05:43:07.823Z,12.30
2023-04-21T05:45:42.056Z,12.43
2023-04-21T05:48:13.758Z,12.83
2023-04-21T05:50:55.661Z,12.57
2023-04-21T05:53:24.630Z,12.97
2023-04-21T05:55:56.390Z,12.23
2023-04-21T05:58:26.852Z,12.33
2023-04-21T06:00:59.056Z,13.43
2023-04-21T06:03:34.722Z,13.70
2023-04-21T06:06:07.870Z,12.07
2023-04-21T06:08:35.882Z,12.87
2023-04-21T06:11:08.057Z,14.00
2023-04-21T06:13:38.834Z,12.80
2023-04-21T06:16:08.095Z,13.83
2023-04-21T06:18:40.029Z,14.23
2023-04-21T06:21:09.497Z,13.60
2023-04-21T06:23:39.647Z,12.87
2023-04-21T06:26:09.451Z,14.20
2023-04-21T06:28:45.482Z,12.97
2023-04-21T06:31:35.538Z,13.97
2023-04-21T06:34:11.843Z,13.23
2023-04-21T06:36:45.165Z,13.13
2023-04-21T06:39:13.107Z,15.23
2023-04-21T06:41:43.902Z,13.93
2023-04-21T06:44:16.851Z,14.37
2023-04-21T06:46:48.294Z,14.23
2023-04-21T06:49:18.251Z,15.13
2023-04-21T06:51:48.108Z,15.40
2023-04-21T06:54:17.957Z,15.00
2023-04-21T06:56:53.921Z,15.37
2023-04-21T06:59:26.633Z,15.30
2023-04-21T07:01:59.072Z,15.07
2023-04-21T07:04:30.276Z,14.70
2023-04-21T07:07:02.399Z,16.23
2023-04-21T07:09:33.859Z,14.97
2023-04-21T07:12:06.629Z,14.90
2023-04-21T07:14:38.170Z,15.80
2023-04-21T07:17:06.772Z,14.97
2023-04-21T07:19:38.264Z,15.17
2023-04-21T07:22:08.621Z,14.90
2023-04-21T07:24:37.463Z,14.87
2023-04-21T07:27:10.086Z,15.40
2023-04-21T07:29:38.628Z,14.53
2023-04-21T07:32:10.711Z,14.17
2023-04-21T07:34:39.158Z,14.57
2023-04-21T07:37:09.167Z,14.00
2023-04-21T07:39:39.811Z,14.60
2023-04-21T07:42:08.427Z,13.57
2023-04-21T07:44:37.665Z,14.00
2023-04-21T07:47:12.075Z,15.20
2023-04-21T07:49:40.064Z,14.70
2023-04-21T07:52:09.595Z,14.43
2023-04-21T07:54:40.439Z,14.43
2023-04-21T07:57:09.587Z,14.00
2023-04-21T07:59:38.325Z,14.53
2023-04-21T08:02:08.788Z,14.07
2023-04-21T08:04:39.671Z,14.50
2023-04-21T08:07:10.491Z,13.63
2023-04-21T08:09:39.848Z,13.27
2023-04-21T08:12:08.284Z,14.00
2023-04-21T08:14:36.661Z,14.20
2023-04-21T08:17:05.766Z,14.30
2023-04-21T08:19:38.699Z,14.73
2023-04-21T08:22:10.469Z,14.80
2023-04-21T08:24:38.344Z,14.20
2023-04-21T08:27:09.208Z,14.80
2023-04-21T08:29:39.890Z,14.83
2023-04-21T08:32:08.316Z,14.93
2023-04-21T08:34:36.280Z,15.50
2023-04-21T08:37:08.057Z,14.90
2023-04-21T08:39:37.196Z,15.10
2023-04-21T08:42:09.179Z,14.60
2023-04-21T08:44:38.621Z,15.07
2023-04-21T08:47:18.013Z,14.67
2023-04-21T08:49:49.233Z,15.47
2023-04-21T08:52:20.251Z,15.37
2023-04-21T08:54:55.562Z,15.20
2023-04-21T08:57:27.958Z,14.23
2023-04-21T08:59:58.186Z,15.10
2023-04-21T09:02:29.684Z,14.17
2023-04-21T09:05:00.033Z,14.57
2023-04-21T09:07:36.988Z,13.60
2023-04-21T09:10:09.139Z,12.60
2023-04-21T09:12:42.876Z,13.70
2023-04-21T09:15:16.950Z,13.37
2023-04-21T09:17:48.366Z,13.53
2023-04-21T09:20:18.625Z,12.80
2023-04-21T09:22:58.526Z,12.97
2023-04-21T09:25:29.507Z,12.40
2023-04-21T09:27:58.458Z,12.40
2023-04-21T09:30:28.330Z,11.77
2023-04-21T09:32:59.683Z,12.43
2023-04-21T09:35:30.080Z,11.70
2023-04-21T09:37:57.797Z,11.73
2023-04-21T09:40:30.394Z,12.03
2023-04-21T09:42:58.285Z,12.20
2023-04-21T09:45:39.702Z,11.60
2023-04-21T09:48:11.221Z,12.03
2023-04-21T09:51:20.772Z,12.77
2023-04-21T09:53:29.770Z,12.20
2023-04-21T09:56:07.390Z,12.27
2023-04-21T09:58:44.007Z,12.83
2023-04-21T10:01:13.546Z,12.80
2023-04-21T10:03:50.132Z,13.60
2023-04-21T10:06:18.748Z,12.13
2023-04-21T10:08:48.924Z,12.17
2023-04-21T10:11:19.588Z,11.87
2023-04-21T10:13:48.908Z,12.17
2023-04-21T10:16:19.890Z,12.27
2023-04-21T10:18:47.798Z,12.23
2023-04-21T10:21:22.053Z,12.37
2023-04-21T10:23:55.939Z,12.30
2023-04-21T10:26:39.927Z,11.57
2023-04-21T10:29:17.392Z,11.43
2023-04-21T10:31:58.145Z,12.27
2023-04-21T10:34:38.420Z,11.93
2023-04-21T10:37:19.684Z,11.87
2023-04-21T10:39:59.738Z,10.53
2023-04-21T10:42:31.345Z,11.10
2023-04-21T10:45:17.154Z,11.20
2023-04-21T10:47:52.396Z,10.47
2023-04-21T10:50:26.535Z,10.90
2023-04-21T10:52:57.327Z,9.37
2023-04-21T10:55:30.641Z,9.33
2023-04-21T10:58:09.129Z,9.50
2023-04-21T11:00:39.701Z,9.57
2023-04-21T11:03:09.237Z,10.10
2023-04-21T11:05:40.645Z,9.67
2023-04-21T11:08:14.119Z,9.40
2023-04-21T11:10:51.118Z,9.77
2023-04-21T11:13:22.331Z,8.83
2023-04-21T11:16:04.234Z,8.73
2023-04-21T11:18:38.121Z,9.43
2023-04-21T11:21:10.789Z,9.67
2023-04-21T11:23:42.150Z,9.00
2023-04-21T11:26:10.009Z,9.37
2023-04-21T11:28:44.456Z,9.53
2023-04-21T11:31:13.107Z,8.80
2023-04-21T11:33:40.963Z,9.23
2023-04-21T11:36:09.351Z,8.67
2023-04-21T11:38:42.888Z,7.93
2023-04-21T11:41:12.713Z,8.93
2023-04-21T11:43:47.019Z,8.03
2023-04-21T11:46:19.247Z,8.30
2023-04-21T11:48:59.876Z,8.57
2023-04-21T11:51:37.851Z,7.57
2023-04-21T11:54:09.504Z,8.30
2023-04-21T11:56:39.032Z,8.30
2023-04-21T11:59:19.844Z,7.87
2023-04-21T12:01:49.283Z,7.93
2023-04-21T12:04:20.247Z,7.83
2023-04-21T12:06:58.561Z,8.30
2023-04-21T12:09:29.644Z,8.57
2023-04-21T12:11:59.968Z,7.50
2023-04-21T12:14:30.246Z,7.37
2023-04-21T12:16:59.724Z,7.17
2023-04-21T12:19:40.504Z,6.77
2023-04-21T12:22:09.604Z,7.40
2023-04-21T12:24:39.305Z,8.13
2023-04-21T12:27:09.586Z,6.90
2023-04-21T12:29:49.429Z,8.60
2023-04-21T12:32:28.428Z,7.77
2023-04-21T12:34:58.464Z,8.20
2023-04-21T12:37:28.739Z,8.03
2023-04-21T12:39:58.886Z,7.47
2023-04-21T12:42:27.617Z,7.73
2023-04-21T12:44:57.034Z,7.40
2023-04-21T12:47:28.688Z,8.67
2023-04-21T12:49:56.591Z,9.50
2023-04-21T12:52:24.302Z,9.80
2023-04-21T12:54:52.742Z,9.40
2023-04-21T12:57:20.981Z,8.93
2023-04-21T12:59:49.411Z,9.33
2023-04-21T13:02:24.365Z,8.83
2023-04-21T13:04:58.382Z,9.33
2023-04-21T13:07:27.081Z,9.37
2023-04-21T13:09:58.959Z,9.33
2023-04-21T13:12:26.818Z,9.27
2023-04-21T13:14:54.611Z,8.97
2023-04-21T13:17:28.827Z,8.73
2023-04-21T13:19:58.772Z,8.30
2023-04-21T13:22:30.342Z,8.10
2023-04-21T13:24:59.082Z,7.83
2023-04-21T13:27:28.393Z,7.40
2023-04-21T13:29:59.559Z,7.20
2023-04-21T13:32:30.274Z,8.60
2023-04-21T13:34:58.264Z,8.27
2023-04-21T13:37:29.163Z,7.97
2023-04-21T13:39:57.203Z,8.10
2023-04-21T13:42:28.271Z,7.97
2023-04-21T13:44:56.112Z,8.23
2023-04-21T13:47:27.629Z,7.90
2023-04-21T13:49:59.176Z,7.60
2023-04-21T13:52:27.299Z,7.87
2023-04-21T13:55:00.118Z,6.90
2023-04-21T13:57:31.325Z,7.47
2023-04-21T14:00:00.698Z,6.97
2023-04-21T14:02:32.621Z,7.87
2023-04-21T14:05:03.180Z,7.43
2023-04-21T14:07:32.496Z,7.53
2023-04-21T14:10:00.620Z,7.47
2023-04-21T14:12:29.498Z,8.00
2023-04-21T14:15:07.584Z,7.13
2023-04-21T14:17:39.888Z,7.57
2023-04-21T14:20:15.020Z,7.93
2023-04-21T14:22:49.929Z,7.43
2023-04-21T14:25:19.065Z,7.70
2023-04-21T14:27:51.706Z,7.80
2023-04-21T14:30:20.044Z,7.90
2023-04-21T14:32:49.023Z,8.03
2023-04-21T14:35:18.312Z,8.50
2023-04-21T14:37:49.639Z,8.90
2023-04-21T14:40:17.648Z,8.53
2023-04-21T14:42:45.391Z,8.70
2023-04-21T14:47:49.178Z,9.23
2023-04-21T14:50:20.699Z,9.30
2023-04-21T14:52:49.762Z,9.17
2023-04-21T14:55:19.181Z,9.03
2023-04-21T14:57:49.279Z,9.17
2023-04-21T15:00:19.898Z,8.77
2023-04-21T15:02:49.346Z,10.47
2023-04-21T15:05:20.855Z,8.57
2023-04-21T15:07:49.795Z,9.17
2023-04-21T15:10:19.250Z,9.80
2023-04-21T15:12:47.146Z,9.00
2023-04-21T15:15:20.980Z,9.47
2023-04-21T15:17:49.241Z,9.07
2023-04-21T15:20:17.355Z,9.40
2023-04-21T15:22:50.654Z,9.63
2023-04-21T15:25:19.470Z,9.37
2023-04-21T15:27:50.239Z,10.50
2023-04-21T15:30:19.361Z,10.93
2023-04-21T15:32:49.281Z,9.90
2023-04-21T15:35:19.389Z,10.37
2023-04-21T15:37:50.584Z,10.20
2023-04-21T15:40:18.536Z,9.77
2023-04-21T15:42:48.249Z,10.07
2023-04-21T15:45:19.188Z,10.33
2023-04-21T15:47:49.222Z,10.37
2023-04-21T15:50:19.128Z,10.60
2023-04-21T15:52:51.016Z,11.53
2023-04-21T15:55:19.041Z,11.87
2023-04-21T15:57:47.658Z,12.57
2023-04-21T16:00:19.095Z,12.50
2023-04-21T16:02:47.047Z,12.57
2023-04-21T16:05:19.689Z,11.90
2023-04-21T16:07:50.404Z,11.73
2023-04-21T16:10:19.409Z,12.03
2023-04-21T16:12:50.869Z,11.80
2023-04-21T16:15:24.470Z,12.23
2023-04-21T16:17:54.472Z,12.03
2023-04-21T16:20:22.392Z,11.90
2023-04-21T16:22:59.549Z,11.73
2023-04-21T16:25:28.002Z,12.67
2023-04-21T16:27:58.687Z,11.33
2023-04-21T16:30:29.774Z,12.03
2023-04-21T16:32:57.905Z,11.97
2023-04-21T16:35:27.149Z,11.97
2023-04-21T16:38:00.270Z,13.03
2023-04-21T16:40:29.238Z,11.97
2023-04-21T16:43:00.175Z,11.70
2023-04-21T16:45:29.619Z,11.67
2023-04-21T16:47:59.998Z,11.50
2023-04-21T16:50:30.758Z,10.67
2023-04-21T16:53:01.049Z,11.10
2023-04-21T16:55:29.878Z,11.53
2023-04-21T16:58:01.782Z,12.03
2023-04-21T17:00:31.279Z,12.37
2023-04-21T17:02:59.198Z,12.40
2023-04-21T17:05:27.321Z,12.20
2023-04-21T17:07:58.183Z,11.70
2023-04-21T17:10:31.062Z,12.23
2023-04-21T17:12:59.805Z,11.83
2023-04-21T17:15:29.485Z,11.90
2023-04-21T17:18:00.207Z,11.67
2023-04-21T17:20:32.139Z,11.33
2023-04-21T17:23:01.155Z,11.87
2023-04-21T17:25:31.291Z,12.27
2023-04-21T17:28:00.128Z,11.87
2023-04-21T17:30:28.011Z,11.07
2023-04-21T17:33:08.395Z,12.30
2023-04-21T17:35:55.809Z,11.83
2023-04-21T17:38:30.906Z,12.30
2023-04-21T17:41:02.152Z,13.00
2023-04-21T17:43:30.178Z,12.00
2023-04-21T17:45:59.383Z,12.13
2023-04-21T17:48:27.398Z,12.17
2023-04-21T17:50:55.160Z,11.87
2023-04-21T17:53:25.028Z,11.97
2023-04-21T17:55:53.614Z,11.90
2023-04-21T17:58:31.629Z,12.23
2023-04-21T18:01:00.362Z,11.83
2023-04-21T18:03:37.184Z,11.70
2023-04-21T18:06:17.281Z,10.87
2023-04-21T18:08:49.904Z,10.77
2023-04-21T18:11:19.501Z,11.10
2023-04-21T18:13:51.161Z,11.67
2023-04-21T18:16:19.914Z,11.40
2023-04-21T18:18:50.062Z,11.10
2023-04-21T18:21:18.112Z,5.70
2023-04-21T18:23:50.867Z,3.47
2023-04-21T18:26:20.178Z,4.23
2023-04-21T18:28:49.934Z,4.90
2023-04-21T18:31:17.737Z,4.10
2023-04-21T18:33:50.584Z,3.70
2023-04-21T18:36:18.389Z,3.70
2023-04-21T18:38:49.683Z,2.70
2023-04-21T18:41:19.968Z,3.73
2023-04-21T18:43:50.554Z,3.17
2023-04-21T18:46:21.317Z,3.23
2023-04-21T18:48:49.788Z,3.37
2023-04-21T18:51:19.575Z,3.47
2023-04-21T18:53:47.857Z,3.50
2023-04-21T18:56:19.806Z,2.77
2023-04-21T18:58:51.328Z,3.23
2023-04-21T19:01:22.115Z,2.80
2023-04-21T19:03:50.205Z,2.97
2023-04-21T19:06:19.837Z,3.20
2023-04-21T19:08:51.246Z,3.30
2023-04-21T19:11:19.040Z,3.00
2023-04-21T19:13:51.370Z,3.40
2023-04-21T19:16:21.979Z,3.87
2023-04-21T19:18:52.131Z,4.67
2023-04-21T19:21:21.533Z,4.47
2023-04-21T19:23:49.995Z,4.93
2023-04-21T19:26:21.801Z,4.23
2023-04-21T19:28:58.440Z,4.30
2023-04-21T19:31:29.684Z,4.47
2023-04-21T19:33:59.450Z,4.87
2023-04-21T19:36:30.024Z,3.80
2023-04-21T19:39:00.180Z,4.40
2023-04-21T19:41:28.661Z,4.60
2023-04-21T19:44:01.768Z,3.70
2023-04-21T19:46:30.022Z,4.07
2023-04-21T19:48:57.875Z,4.90
2023-04-21T19:51:25.604Z,5.37
2023-04-21T19:54:03.166Z,5.37
2023-04-21T19:56:40.192Z,5.47
2023-04-21T19:59:11.654Z,5.93
2023-04-21T20:01:40.234Z,5.87
2023-04-21T20:04:10.225Z,5.50
2023-04-21T20:06:47.324Z,6.00
2023-04-21T20:09:20.161Z,6.47
2023-04-21T20:11:49.406Z,6.40
2023-04-21T20:14:20.363Z,6.83
2023-04-21T20:16:50.118Z,6.20
2023-04-21T20:19:27.540Z,6.43
2023-04-21T20:22:01.653Z,5.90
2023-04-21T20:24:30.478Z,5.13
2023-04-21T20:26:58.318Z,6.03
2023-04-21T20:29:31.564Z,5.17
2023-04-21T20:31:59.956Z,5.67
2023-04-21T20:34:29.679Z,5.13
2023-04-21T20:37:07.723Z,5.23
2023-04-21T20:39:41.457Z,4.77
2023-04-21T20:42:13.526Z,4.83
2023-04-21T20:44:47.617Z,5.00
2023-04-21T20:47:20.242Z,4.77
2023-04-21T20:49:50.289Z,4.87
2023-04-21T20:52:20.642Z,4.33
2023-04-21T20:54:48.619Z,4.23
2023-04-21T20:57:17.180Z,5.70
2023-04-21T20:59:50.140Z,4.70
2023-04-21T21:02:20.329Z,4.80
2023-04-21T21:04:50.078Z,4.17
2023-04-21T21:07:18.854Z,4.40
2023-04-21T21:09:49.661Z,4.73
2023-04-21T21:12:20.067Z,4.80
2023-04-21T21:14:51.376Z,4.30
2023-04-21T21:17:22.426Z,4.33
2023-04-21T21:19:50.462Z,3.93
2023-04-21T21:22:20.382Z,3.87
2023-04-21T21:24:50.466Z,4.07
2023-04-21T21:27:20.603Z,3.60
2023-04-21T21:29:51.030Z,3.77
2023-04-21T21:32:20.894Z,3.50
2023-04-21T21:34:50.603Z,3.87
2023-04-21T21:37:19.924Z,3.80
2023-04-21T21:39:49.344Z,4.03
2023-04-21T21:42:17.125Z,3.97
2023-04-21T21:44:47.703Z,3.87
2023-04-21T21:47:21.852Z,3.77
2023-04-21T21:49:55.546Z,4.20
2023-04-21T21:52:24.378Z,4.20
2023-04-21T21:54:55.829Z,4.87
2023-04-21T21:57:28.553Z,4.37
2023-04-21T22:00:00.339Z,4.97
2023-04-21T22:02:31.921Z,4.73
2023-04-21T22:05:00.775Z,5.50
2023-04-21T22:07:29.366Z,4.97
2023-04-21T22:10:00.512Z,4.90
2023-04-21T22:12:31.850Z,4.97
2023-04-21T22:15:00.403Z,6.00
2023-04-21T22:17:30.789Z,5.50
2023-04-21T22:20:01.373Z,5.27
2023-04-21T22:22:30.224Z,5.70
2023-04-21T22:25:00.164Z,5.80
2023-04-21T22:27:35.579Z,5.77
2023-04-21T22:30:08.853Z,6.10
2023-04-21T22:32:36.738Z,5.97
2023-04-21T22:35:10.978Z,6.20
2023-04-21T22:37:40.516Z,6.13
2023-04-21T22:40:12.065Z,6.43
2023-04-21T22:42:40.397Z,6.20
2023-04-21T22:45:09.386Z,6.17
2023-04-21T22:47:41.865Z,5.37
2023-04-21T22:50:12.345Z,6.63
2023-04-21T22:52:40.477Z,6.63
2023-04-21T22:55:10.196Z,6.70
2023-04-21T22:57:40.350Z,6.50
2023-04-21T23:00:09.730Z,6.63
2023-04-21T23:02:42.185Z,6.10
2023-04-21T23:05:11.792Z,6.63
2023-04-21T23:07:39.610Z,6.30
2023-04-21T23:10:11.303Z,6.90
2023-04-21T23:12:40.662Z,6.37
2023-04-21T23:15:11.127Z,7.37
2023-04-21T23:17:40.216Z,6.90
2023-04-21T23:20:12.575Z,6.87
2023-04-21T23:22:41.137Z,7.27
2023-04-21T23:25:10.334Z,7.23
2023-04-21T23:27:41.183Z,7.90
2023-04-21T23:30:11.197Z,7.23
2023-04-21T23:32:39.091Z,7.23
2023-04-21T23:35:07.825Z,7.50
2023-04-21T23:37:40.482Z,7.70
2023-04-21T23:40:12.635Z,7.77
2023-04-21T23:42:40.819Z,7.90
2023-04-21T23:45:09.763Z,7.77
2023-04-21T23:47:39.145Z,7.57
2023-04-21T23:50:12.668Z,7.93
2023-04-21T23:52:44.462Z,7.63
2023-04-21T23:55:12.718Z,7.70
2023-04-21T23:57:40.779Z,6.73
